createdAt,value
2023-04-11T00:01:13.018Z,99260.66
2023-04-11T00:03:40.207Z,99260.50
2023-04-11T00:06:09.006Z,99257.44
2023-04-11T00:08:36.025Z,99251.41
2023-04-11T00:11:03.032Z,99250.91
2023-04-11T00:13:30.004Z,99239.38
2023-04-11T00:15:57.690Z,99244.19
2023-04-11T00:18:25.632Z,99235.69
2023-04-11T00:20:52.557Z,99237.84
2023-04-11T00:23:21.887Z,99233.53
2023-04-11T00:25:48.871Z,99229.81
2023-04-11T00:28:18.477Z,99232.13
2023-04-11T00:30:45.566Z,99218.00
2023-04-11T00:33:12.495Z,99221.81
2023-04-11T00:35:40.796Z,99225.06
2023-04-11T00:38:07.739Z,99227.97
2023-04-11T00:40:34.793Z,99229.81
2023-04-11T00:43:02.043Z,99222.88
2023-04-11T00:45:29.585Z,99226.59
2023-04-11T00:47:57.814Z,99217.38
2023-04-11T00:50:25.285Z,99215.34
2023-04-11T00:52:55.700Z,99204.22
2023-04-11T00:55:22.829Z,99205.03
2023-04-11T00:57:54.142Z,99209.19
2023-04-11T01:00:21.156Z,99211.94
2023-04-11T01:02:49.007Z,99213.81
2023-04-11T01:05:17.081Z,99213.34
2023-04-11T01:07:48.241Z,99207.34
2023-04-11T01:10:16.751Z,99212.72
2023-04-11T01:12:45.686Z,99206.72
2023-04-11T01:15:12.954Z,99210.13
2023-04-11T01:17:41.780Z,99218.13
2023-04-11T01:20:11.700Z,99213.81
2023-04-11T01:22:39.943Z,99213.63
2023-04-11T01:25:07.654Z,99211.00
2023-04-11T01:27:35.220Z,99211.25
2023-04-11T01:30:02.183Z,99204.84
2023-04-11T01:32:29.198Z,99192.25
2023-04-11T01:34:59.016Z,99193.00
2023-04-11T01:37:26.145Z,99199.28
2023-04-11T01:39:53.286Z,99202.72
2023-04-11T01:42:23.012Z,99198.59
2023-04-11T01:44:53.848Z,99197.28
2023-04-11T01:47:20.850Z,99184.91
2023-04-11T01:49:50.818Z,99180.44
2023-04-11T01:52:17.823Z,99173.78
2023-04-11T01:54:44.766Z,99170.50
2023-04-11T01:57:11.731Z,99169.72
2023-04-11T01:59:38.701Z,99170.97
2023-04-11T02:02:05.905Z,99167.97
2023-04-11T02:04:33.041Z,99166.03
2023-04-11T02:06:59.992Z,99164.84
2023-04-11T02:09:26.956Z,99157.38
2023-04-11T02:11:54.016Z,99160.88
2023-04-11T02:14:21.016Z,99147.59
2023-04-11T02:16:51.255Z,99148.09
2023-04-11T02:19:18.687Z,99148.19
2023-04-11T02:21:46.515Z,99147.59
2023-04-11T02:24:13.965Z,99142.38
2023-04-11T02:26:42.600Z,99144.41
2023-04-11T02:29:09.882Z,99139.31
2023-04-11T02:31:37.049Z,99135.91
2023-04-11T02:34:04.068Z,99140.22
2023-04-11T02:36:31.048Z,99121.06
2023-04-11T02:38:58.096Z,99117.69
2023-04-11T02:41:27.489Z,99120.75
2023-04-11T02:43:54.655Z,99134.56
2023-04-11T02:46:22.615Z,99118.97
2023-04-11T02:48:49.737Z,99122.06
2023-04-11T02:51:16.809Z,99118.50
2023-04-11T02:53:43.771Z,99109.88
2023-04-11T02:56:13.245Z,99104.66
2023-04-11T02:58:41.935Z,99104.38
2023-04-11T03:01:12.062Z,99102.88
2023-04-11T03:03:39.454Z,99097.00
2023-04-11T03:06:07.501Z,99085.28
2023-04-11T03:08:39.251Z,99092.41
2023-04-11T03:11:06.658Z,99085.94
2023-04-11T03:13:34.028Z,99103.91
2023-04-11T03:16:01.196Z,99101.63
2023-04-11T03:18:30.780Z,99100.44
2023-04-11T03:21:00.819Z,99102.09
2023-04-11T03:23:28.188Z,99102.72
2023-04-11T03:25:55.343Z,99100.34
2023-04-11T03:28:23.321Z,99103.59
2023-04-11T03:30:50.682Z,99101.91
2023-04-11T03:33:22.073Z,99098.56
2023-04-11T03:35:50.229Z,99098.41
2023-04-11T03:38:17.258Z,99095.94
2023-04-11T03:40:44.263Z,99102.09
2023-04-11T03:43:19.869Z,99101.03
2023-04-11T03:45:47.095Z,99108.06
2023-04-11T03:48:26.375Z,99096.22
2023-04-11T03:50:58.656Z,99090.94
2023-04-11T03:53:34.229Z,99097.91
2023-04-11T03:56:08.729Z,99092.53
2023-04-11T03:58:38.179Z,99105.63
2023-04-11T04:01:05.718Z,99097.31
2023-04-11T04:03:33.164Z,99102.72
2023-04-11T04:06:00.982Z,99105.16
2023-04-11T04:08:28.310Z,99107.00
2023-04-11T04:10:56.211Z,99105.63
2023-04-11T04:13:23.381Z,99098.50
2023-04-11T04:16:03.639Z,99097.78
2023-04-11T04:18:32.466Z,99093.47
2023-04-11T04:21:00.778Z,99091.66
2023-04-11T04:23:28.051Z,99089.19
2023-04-11T04:26:25.313Z,99080.91
2023-04-11T04:29:06.799Z,99080.13
2023-04-11T04:31:50.765Z,99074.22
2023-04-11T04:34:21.776Z,99070.53
2023-04-11T04:36:50.021Z,99067.75
2023-04-11T04:39:25.446Z,99054.53
2023-04-11T04:42:00.366Z,99060.34
2023-04-11T04:44:33.426Z,99052.69
2023-04-11T04:47:08.165Z,99055.97
2023-04-11T04:49:35.347Z,99040.84
2023-04-11T04:52:02.355Z,99050.09
2023-04-11T04:54:31.330Z,99041.28
2023-04-11T04:56:58.643Z,99036.97
2023-04-11T04:59:26.094Z,99045.78
2023-04-11T05:01:59.972Z,99039.78
2023-04-11T05:04:30.434Z,99040.53
2023-04-11T05:07:01.720Z,99038.06
2023-04-11T05:09:30.461Z,99031.91
2023-04-11T05:12:08.769Z,99034.69
2023-04-11T05:14:38.322Z,99024.25
2023-04-11T05:17:05.677Z,99023.94
2023-04-11T05:19:33.212Z,99026.84
2023-04-11T05:22:00.736Z,99021.00
2023-04-11T05:24:27.734Z,99018.06
2023-04-11T05:26:56.867Z,99018.09
2023-04-11T05:29:23.894Z,99028.56
2023-04-11T05:31:51.062Z,99021.31
2023-04-11T05:34:18.281Z,99029.28
2023-04-11T05:36:48.699Z,99026.22
2023-04-11T05:39:15.795Z,99037.91
2023-04-11T05:41:43.280Z,99036.66
2023-04-11T05:44:10.258Z,99031.47
2023-04-11T05:46:37.404Z,99033.59
2023-04-11T05:49:04.489Z,99028.94
2023-04-11T05:51:31.464Z,99021.78
2023-04-11T05:53:58.767Z,99025.06
2023-04-11T05:56:26.133Z,99026.13
2023-04-11T05:58:53.130Z,99027.13
2023-04-11T06:01:20.151Z,99025.06
2023-04-11T06:03:48.176Z,99021.66
2023-04-11T06:06:15.790Z,99022.16
2023-04-11T06:08:42.927Z,99023.44
2023-04-11T06:11:11.297Z,99018.66
2023-04-11T06:13:38.264Z,99021.00
2023-04-11T06:16:06.859Z,99014.50
2023-04-11T06:18:33.808Z,99013.50
2023-04-11T06:21:01.207Z,99011.47
2023-04-11T06:23:28.216Z,98997.06
2023-04-11T06:25:55.291Z,99001.31
2023-04-11T06:28:22.417Z,99008.13
2023-04-11T06:30:49.493Z,98996.09
2023-04-11T06:33:16.461Z,98992.41
2023-04-11T06:35:43.453Z,98997.69
2023-04-11T06:38:10.496Z,98991.78
2023-04-11T06:40:37.542Z,98997.13
2023-04-11T06:43:04.468Z,98994.88
2023-04-11T06:45:34.343Z,99001.53
2023-04-11T06:48:01.348Z,98999.50
2023-04-11T06:50:28.365Z,98994.09
2023-04-11T06:52:55.346Z,98994.69
2023-04-11T06:55:23.071Z,99003.28
2023-04-11T06:57:49.971Z,98993.06
2023-04-11T07:00:17.566Z,98998.31
2023-04-11T07:02:45.106Z,99003.63
2023-04-11T07:05:12.556Z,98995.47
2023-04-11T07:07:39.773Z,98997.38
2023-04-11T07:10:07.686Z,99001.38
2023-04-11T07:12:34.655Z,98992.94
2023-04-11T07:15:02.972Z,98991.00
2023-04-11T07:17:29.992Z,98995.06
2023-04-11T07:19:56.999Z,98995.00
2023-04-11T07:22:24.039Z,98994.03
2023-04-11T07:24:55.371Z,98987.44
2023-04-11T07:27:23.574Z,98990.84
2023-04-11T07:29:50.797Z,98984.53
2023-04-11T07:32:17.926Z,98991.06
2023-04-11T07:34:44.935Z,99002.69
2023-04-11T07:37:12.554Z,99004.84
2023-04-11T07:39:40.647Z,98994.59
2023-04-11T07:42:07.850Z,98988.25
2023-04-11T07:44:35.731Z,98997.22
2023-04-11T07:47:02.737Z,99001.38
2023-04-11T07:49:29.994Z,99003.19
2023-04-11T07:51:57.455Z,98985.50
2023-04-11T07:54:25.377Z,98981.75
2023-04-11T07:56:52.404Z,98987.78
2023-04-11T07:59:19.536Z,98983.75
2023-04-11T08:01:46.625Z,98988.44
2023-04-11T08:04:14.362Z,98985.56
2023-04-11T08:06:41.595Z,98984.59
2023-04-11T08:09:08.541Z,98982.00
2023-04-11T08:11:35.550Z,98976.19
2023-04-11T08:14:02.530Z,98972.03
2023-04-11T08:16:29.603Z,98962.19
2023-04-11T08:18:57.420Z,98965.66
2023-04-11T08:21:25.110Z,98967.34
2023-04-11T08:23:52.107Z,98968.09
2023-04-11T08:26:21.184Z,98965.56
2023-04-11T08:28:48.220Z,98966.44
2023-04-11T08:31:15.535Z,98957.03
2023-04-11T08:33:42.584Z,98952.97
2023-04-11T08:36:10.869Z,98947.94
2023-04-11T08:38:39.779Z,98945.66
2023-04-11T08:41:07.241Z,98949.16
2023-04-11T08:43:39.963Z,98948.44
2023-04-11T08:46:08.325Z,98944.16
2023-04-11T08:48:36.208Z,98938.22
2023-04-11T08:51:03.219Z,98941.19
2023-04-11T08:53:51.279Z,98936.28
2023-04-11T08:56:19.397Z,98929.66
2023-04-11T08:58:46.867Z,98929.78
2023-04-11T09:01:35.049Z,98935.25
2023-04-11T09:04:08.654Z,98923.06
2023-04-11T09:06:35.877Z,98920.81
2023-04-11T09:09:08.784Z,98912.94
2023-04-11T09:11:53.755Z,98920.78
2023-04-11T09:14:26.841Z,98908.00
2023-04-11T09:16:55.980Z,98896.94
2023-04-11T09:19:26.800Z,98899.06
2023-04-11T09:22:00.570Z,98890.59
2023-04-11T09:24:29.823Z,98901.53
2023-04-11T09:27:26.384Z,98886.16
2023-04-11T09:29:53.302Z,98893.78
2023-04-11T09:32:34.868Z,98891.09
2023-04-11T09:35:20.653Z,98884.59
2023-04-11T09:37:56.490Z,98877.97
2023-04-11T09:40:26.386Z,98880.00
2023-04-11T09:42:58.737Z,98865.13
2023-04-11T09:45:27.791Z,98870.31
2023-04-11T09:47:58.306Z,98859.38
2023-04-11T09:50:27.624Z,98864.09
2023-04-11T09:52:58.950Z,98855.09
2023-04-11T09:55:26.417Z,98842.53
2023-04-11T09:57:54.754Z,98840.78
2023-04-11T10:00:25.142Z,98832.16
2023-04-11T10:02:53.782Z,98853.81
2023-04-11T10:05:31.814Z,98844.53
2023-04-11T10:08:25.480Z,98835.91
2023-04-11T10:10:53.144Z,98845.19
2023-04-11T10:13:35.273Z,98837.47
2023-04-11T10:16:18.691Z,98827.09
2023-04-11T10:18:54.583Z,98830.66
2023-04-11T10:21:30.772Z,98832.84
2023-04-11T10:24:17.428Z,98832.28
2023-04-11T10:26:52.063Z,98826.22
2023-04-11T10:29:33.201Z,98815.19
2023-04-11T10:32:20.763Z,98815.22
2023-04-11T10:34:50.913Z,98803.22
2023-04-11T10:37:19.484Z,98809.91
2023-04-11T10:39:52.235Z,98798.94
2023-04-11T10:42:31.975Z,98797.84
2023-04-11T10:45:39.922Z,98792.66
2023-04-11T10:48:11.816Z,98790.16
2023-04-11T10:50:44.648Z,98785.66
2023-04-11T10:53:36.889Z,98783.47
2023-04-11T10:56:04.307Z,98770.28
2023-04-11T10:58:39.638Z,98781.16
2023-04-11T11:01:31.585Z,98763.28
2023-04-11T11:04:04.723Z,98764.91
2023-04-11T11:06:38.074Z,98763.19
2023-04-11T11:09:28.689Z,98749.28
2023-04-11T11:12:16.364Z,98746.28
2023-04-11T11:14:46.220Z,98761.66
2023-04-11T11:17:15.346Z,98746.28
2023-04-11T11:19:47.134Z,98747.91
2023-04-11T11:22:28.628Z,98736.69
2023-04-11T11:25:08.245Z,98737.00
2023-04-11T11:27:35.312Z,98734.06
2023-04-11T11:30:12.280Z,98723.16
2023-04-11T11:32:39.272Z,98725.97
2023-04-11T11:35:15.556Z,98722.69
2023-04-11T11:37:42.752Z,98729.94
2023-04-11T11:40:14.846Z,98714.53
2023-04-11T11:42:42.057Z,98720.63
2023-04-11T11:45:22.571Z,98721.19
2023-04-11T11:47:50.508Z,98719.25
2023-04-11T11:50:29.570Z,98710.94
2023-04-11T11:53:15.240Z,98707.75
2023-04-11T11:55:43.399Z,98709.78
2023-04-11T11:58:10.479Z,98699.56
2023-04-11T12:00:39.931Z,98704.94
2023-04-11T12:03:10.863Z,98702.25
2023-04-11T12:05:38.643Z,98695.50
2023-04-11T12:08:07.463Z,98692.75
2023-04-11T12:10:43.533Z,98703.44
2023-04-11T12:13:22.409Z,98689.41
2023-04-11T12:15:56.307Z,98686.41
2023-04-11T12:18:25.765Z,98687.41
2023-04-11T12:20:52.973Z,98686.63
2023-04-11T12:23:20.388Z,98681.81
2023-04-11T12:25:48.918Z,98674.00
2023-04-11T12:28:16.328Z,98662.34
2023-04-11T12:30:43.241Z,98668.75
2023-04-11T12:33:10.275Z,98663.44
2023-04-11T12:35:37.611Z,98659.84
2023-04-11T12:38:05.270Z,98658.09
2023-04-11T12:40:32.368Z,98657.78
2023-04-11T12:42:59.359Z,98645.41
2023-04-11T12:45:26.656Z,98645.59
2023-04-11T12:47:54.027Z,98637.94
2023-04-11T12:50:23.657Z,98631.75
2023-04-11T12:52:51.586Z,98639.97
2023-04-11T12:55:18.967Z,98638.47
2023-04-11T12:57:48.335Z,98633.81
2023-04-11T13:00:16.672Z,98617.66
2023-04-11T13:02:45.325Z,98618.22
2023-04-11T13:05:16.884Z,98609.06
2023-04-11T13:07:46.623Z,98617.91
2023-04-11T13:10:16.144Z,98619.28
2023-04-11T13:12:45.136Z,98617.38
2023-04-11T13:15:15.765Z,98614.94
2023-04-11T13:17:43.690Z,98615.25
2023-04-11T13:20:11.761Z,98623.41
2023-04-11T13:22:41.172Z,98622.19
2023-04-11T13:25:09.870Z,98611.50
2023-04-11T13:27:37.784Z,98612.97
2023-04-11T13:30:05.937Z,98610.06
2023-04-11T13:32:33.009Z,98609.16
2023-04-11T13:35:00.062Z,98607.34
2023-04-11T13:37:28.525Z,98611.41
2023-04-11T13:39:55.710Z,98606.53
2023-04-11T13:42:22.670Z,98612.03
2023-04-11T13:44:49.756Z,98609.50
2023-04-11T13:47:16.624Z,98603.97
2023-04-11T13:49:43.649Z,98600.41
2023-04-11T13:52:10.975Z,98600.09
2023-04-11T13:54:38.964Z,98599.41
2023-04-11T13:57:07.887Z,98601.59
2023-04-11T13:59:35.633Z,98602.72
2023-04-11T14:02:02.836Z,98600.97
2023-04-11T14:04:30.126Z,98597.13
2023-04-11T14:06:57.401Z,98595.47
2023-04-11T14:09:24.495Z,98585.22
2023-04-11T14:11:51.401Z,98597.69
2023-04-11T14:14:18.396Z,98593.47
2023-04-11T14:16:45.455Z,98589.84
2023-04-11T14:19:12.509Z,98588.97
2023-04-11T14:21:39.469Z,98593.84
2023-04-11T14:24:06.775Z,98582.09
2023-04-11T14:26:33.743Z,98583.97
2023-04-11T14:29:00.941Z,98583.19
2023-04-11T14:31:28.467Z,98579.47
2023-04-11T14:33:55.837Z,98577.19
2023-04-11T14:36:23.092Z,98581.53
2023-04-11T14:38:53.188Z,98573.72
2023-04-11T14:41:20.216Z,98571.13
2023-04-11T14:43:47.114Z,98578.31
2023-04-11T14:46:14.103Z,98573.13
2023-04-11T14:48:41.189Z,98562.00
2023-04-11T14:51:08.798Z,98561.16
2023-04-11T14:53:37.368Z,98558.97
2023-04-11T14:56:06.717Z,98559.13
2023-04-11T14:58:34.155Z,98550.00
2023-04-11T15:01:01.416Z,98555.72
2023-04-11T15:03:28.541Z,98551.50
2023-04-11T15:05:55.921Z,98541.16
2023-04-11T15:08:22.901Z,98558.06
2023-04-11T15:10:53.994Z,98561.06
2023-04-11T15:13:22.810Z,98539.78
2023-04-11T15:15:49.944Z,98538.47
2023-04-11T15:18:25.995Z,98540.88
2023-04-11T15:20:53.309Z,98539.81
2023-04-11T15:23:21.003Z,98539.78
2023-04-11T15:25:54.045Z,98537.19
2023-04-11T15:28:22.004Z,98540.25
2023-04-11T15:30:52.065Z,98543.03
2023-04-11T15:33:22.110Z,98537.34
2023-04-11T15:35:49.209Z,98536.13
2023-04-11T15:38:16.509Z,98540.38
2023-04-11T15:40:43.989Z,98537.00
2023-04-11T15:43:11.112Z,98524.41
2023-04-11T15:45:39.809Z,98523.75
2023-04-11T15:48:07.010Z,98517.59
2023-04-11T15:50:34.239Z,98516.81
2023-04-11T15:53:01.181Z,98521.09
2023-04-11T15:55:28.816Z,98518.66
2023-04-11T15:57:56.045Z,98519.66
2023-04-11T16:00:23.329Z,98519.81
2023-04-11T16:02:50.784Z,98512.81
2023-04-11T16:05:20.866Z,98501.53
2023-04-11T16:07:48.436Z,98502.34
2023-04-11T16:10:16.586Z,98505.63
2023-04-11T16:12:43.616Z,98504.34
2023-04-11T16:15:10.701Z,98493.56
2023-04-11T16:17:38.389Z,98493.34
2023-04-11T16:20:11.207Z,98482.81
2023-04-11T16:22:39.648Z,98484.34
2023-04-11T16:25:10.839Z,98482.22
2023-04-11T16:27:38.343Z,98485.16
2023-04-11T16:30:07.825Z,98480.69
2023-04-11T16:32:38.852Z,98477.19
2023-04-11T16:35:06.429Z,98484.72
2023-04-11T16:37:33.548Z,98481.06
2023-04-11T16:40:01.022Z,98484.34
2023-04-11T16:42:28.094Z,98482.69
2023-04-11T16:44:55.009Z,98482.81
2023-04-11T16:47:26.183Z,98478.75
2023-04-11T16:49:53.620Z,98477.00
2023-04-11T16:52:24.003Z,98489.06
2023-04-11T16:54:51.621Z,98488.44
2023-04-11T16:57:19.026Z,98490.22
2023-04-11T16:59:46.080Z,98483.63
2023-04-11T17:02:13.194Z,98492.22
2023-04-11T17:04:40.257Z,98484.25
2023-04-11T17:07:07.313Z,98478.31
2023-04-11T17:09:34.496Z,98475.47
2023-04-11T17:12:03.222Z,98484.59
2023-04-11T17:14:31.020Z,98483.56
2023-04-11T17:17:02.232Z,98481.97
2023-04-11T17:19:29.377Z,98478.75
2023-04-11T17:21:57.522Z,98484.66
2023-04-11T17:24:25.352Z,98487.13
2023-04-11T17:26:52.619Z,98490.69
2023-04-11T17:29:20.684Z,98490.00
2023-04-11T17:31:48.173Z,98482.38
2023-04-11T17:34:15.176Z,98487.25
2023-04-11T17:36:43.064Z,98485.91
2023-04-11T17:39:17.095Z,98487.34
2023-04-11T17:41:45.709Z,98480.38
2023-04-11T17:44:13.463Z,98486.38
2023-04-11T17:46:41.155Z,98485.66
2023-04-11T17:49:08.413Z,98480.91
2023-04-11T17:51:38.836Z,98487.06
2023-04-11T17:54:08.584Z,98484.16
2023-04-11T17:56:35.497Z,98481.41
2023-04-11T17:59:02.553Z,98484.22
2023-04-11T18:01:32.347Z,98492.88
2023-04-11T18:04:01.962Z,98484.31
2023-04-11T18:06:34.367Z,98480.78
2023-04-11T18:09:05.358Z,98483.06
2023-04-11T18:11:32.612Z,98488.13
2023-04-11T18:13:59.975Z,98488.81
2023-04-11T18:16:28.368Z,98487.25
2023-04-11T18:18:58.146Z,98488.44
2023-04-11T18:21:27.706Z,98486.88
2023-04-11T18:23:56.172Z,98492.03
2023-04-11T18:26:23.340Z,98494.19
2023-04-11T18:28:50.350Z,98494.97
2023-04-11T18:31:20.290Z,98485.88
2023-04-11T18:33:49.138Z,98497.06
2023-04-11T18:36:16.667Z,98500.53
2023-04-11T18:38:44.158Z,98502.84
2023-04-11T18:41:11.578Z,98500.94
2023-04-11T18:43:39.354Z,98495.44
2023-04-11T18:46:08.823Z,98505.06
2023-04-11T18:48:36.424Z,98499.75
2023-04-11T18:51:05.189Z,98501.31
2023-04-11T18:53:33.469Z,98502.31
2023-04-11T18:56:03.256Z,98501.47
2023-04-11T18:58:34.909Z,98508.56
2023-04-11T19:01:14.846Z,98499.38
2023-04-11T19:03:44.002Z,98505.09
2023-04-11T19:06:11.629Z,98499.28
2023-04-11T19:08:38.884Z,98508.00
2023-04-11T19:11:06.903Z,98499.13
2023-04-11T19:13:34.015Z,98498.66
2023-04-11T19:16:01.733Z,98494.63
2023-04-11T19:18:29.570Z,98499.34
2023-04-11T19:20:57.299Z,98499.69
2023-04-11T19:23:24.583Z,98500.78
2023-04-11T19:25:52.103Z,98502.59
2023-04-11T19:28:21.682Z,98507.31
2023-04-11T19:30:48.869Z,98501.41
2023-04-11T19:33:16.316Z,98506.41
2023-04-11T19:35:43.470Z,98507.50
2023-04-11T19:38:11.560Z,98506.88
2023-04-11T19:40:42.544Z,98508.91
2023-04-11T19:43:10.577Z,98506.69
2023-04-11T19:45:38.340Z,98504.69
2023-04-11T19:48:06.396Z,98513.41
2023-04-11T19:50:36.854Z,98508.34
2023-04-11T19:53:04.857Z,98502.25
2023-04-11T19:55:32.643Z,98507.50
2023-04-11T19:58:01.563Z,98506.81
2023-04-11T20:00:49.087Z,98498.38
2023-04-11T20:03:17.283Z,98500.91
2023-04-11T20:05:45.882Z,98501.97
2023-04-11T20:08:14.562Z,98501.06
2023-04-11T20:10:41.807Z,98511.03
2023-04-11T20:13:09.147Z,98511.72
2023-04-11T20:15:36.308Z,98512.44
2023-04-11T20:18:04.662Z,98505.59
2023-04-11T20:20:33.679Z,98501.00
2023-04-11T20:23:04.947Z,98501.78
2023-04-11T20:25:33.438Z,98502.19
2023-04-11T20:28:01.220Z,98502.25
2023-04-11T20:30:29.876Z,98498.94
2023-04-11T20:32:57.432Z,98492.88
2023-04-11T20:35:25.177Z,98499.06
2023-04-11T20:37:54.103Z,98494.06
2023-04-11T20:40:22.612Z,98511.13
2023-04-11T20:42:49.779Z,98508.28
2023-04-11T20:45:25.674Z,98509.09
2023-04-11T20:47:57.071Z,98503.22
2023-04-11T20:50:25.852Z,98503.28
2023-04-11T20:52:54.292Z,98505.44
2023-04-11T20:55:21.284Z,98502.38
2023-04-11T20:57:48.292Z,98499.88
2023-04-11T21:00:20.272Z,98503.09
2023-04-11T21:02:50.409Z,98502.72
2023-04-11T21:05:22.000Z,98500.03
2023-04-11T21:07:50.142Z,98495.88
2023-04-11T21:10:17.202Z,98497.59
2023-04-11T21:12:51.093Z,98495.50
2023-04-11T21:15:19.845Z,98490.50
2023-04-11T21:17:47.262Z,98489.50
2023-04-11T21:20:18.345Z,98480.75
2023-04-11T21:22:53.025Z,98484.44
2023-04-11T21:25:21.211Z,98487.47
2023-04-11T21:27:48.439Z,98487.88
2023-04-11T21:30:15.444Z,98485.41
2023-04-11T21:32:42.444Z,98482.41
2023-04-11T21:35:11.836Z,98477.56
2023-04-11T21:37:40.259Z,98484.50
2023-04-11T21:40:08.463Z,98473.34
2023-04-11T21:42:35.457Z,98482.63
2023-04-11T21:45:02.448Z,98487.41
2023-04-11T21:47:29.992Z,98486.09
2023-04-11T21:49:56.916Z,98485.59
2023-04-11T21:52:24.350Z,98492.47
2023-04-11T21:54:52.320Z,98485.09
2023-04-11T21:57:19.669Z,98490.22
2023-04-11T21:59:46.889Z,98487.59
2023-04-11T22:02:13.976Z,98488.56
2023-04-11T22:04:55.869Z,98475.47
2023-04-11T22:07:38.585Z,98487.91
2023-04-11T22:10:10.294Z,98478.94
2023-04-11T22:12:40.927Z,98476.09
2023-04-11T22:15:08.573Z,98482.78
2023-04-11T22:17:37.230Z,98478.94
2023-04-11T22:20:06.903Z,98486.41
2023-04-11T22:22:35.342Z,98486.00
2023-04-11T22:25:03.395Z,98482.69
2023-04-11T22:27:34.470Z,98484.22
2023-04-11T22:30:02.495Z,98475.25
2023-04-11T22:32:30.590Z,98475.66
2023-04-11T22:34:58.127Z,98474.19
2023-04-11T22:37:26.350Z,98470.41
2023-04-11T22:39:53.339Z,98472.34
2023-04-11T22:42:20.906Z,98467.78
2023-04-11T22:44:48.458Z,98467.16
2023-04-11T22:47:16.475Z,98478.13
2023-04-11T22:49:45.089Z,98456.22
2023-04-11T22:52:14.965Z,98460.38
2023-04-11T22:54:43.212Z,98468.38
2023-04-11T22:57:11.154Z,98466.56
2023-04-11T22:59:38.049Z,98462.00
2023-04-11T23:02:05.114Z,98459.88
2023-04-11T23:04:32.586Z,98461.84
2023-04-11T23:07:00.745Z,98458.53
2023-04-11T23:09:28.424Z,98459.28
2023-04-11T23:11:55.491Z,98460.91
2023-04-11T23:14:22.625Z,98451.00
2023-04-11T23:16:49.660Z,98452.16
2023-04-11T23:19:18.793Z,98452.34
2023-04-11T23:21:46.318Z,98445.22
2023-04-11T23:24:13.334Z,98449.78
2023-04-11T23:26:43.126Z,98452.22
2023-04-11T23:29:10.947Z,98454.28
2023-04-11T23:31:37.878Z,98454.53
2023-04-11T23:34:05.122Z,98443.16
2023-04-11T23:36:32.764Z,98451.50
2023-04-11T23:39:02.109Z,98450.59
2023-04-11T23:41:30.322Z,98458.84
2023-04-11T23:43:57.938Z,98458.00
2023-04-11T23:46:25.474Z,98442.91
2023-04-11T23:48:53.919Z,98444.41
2023-04-11T23:51:20.926Z,98442.81
2023-04-11T23:53:48.022Z,98446.78
2023-04-11T23:56:14.988Z,98439.31
2023-04-11T23:58:41.931Z,98442.25
